createdAt,value
2019-03-10T11:47:18.038Z,87.10
2019-03-10T11:50:15.312Z,84.50
2019-03-10T11:52:55.899Z,77.40
2019-03-10T11:55:38.321Z,77.30
2019-03-10T11:58:37.189Z,76.40
2019-03-10T12:01:17.765Z,77.40
2019-03-10T12:03:55.146Z,76.80
2019-03-10T12:06:36.566Z,77.40
2019-03-10T12:09:17.500Z,76.40
2019-03-10T12:11:50.302Z,77.00
2019-03-10T12:14:22.182Z,77.90
2019-03-10T12:16:54.030Z,76.80
2019-03-10T12:19:26.224Z,73.80
2019-03-10T12:21:58.068Z,66.90
2019-03-10T12:24:30.011Z,66.60
2019-03-10T12:27:01.912Z,67.60
2019-03-10T12:29:34.063Z,66.20
2019-03-10T12:32:06.506Z,66.40
2019-03-10T12:34:38.398Z,65.20
2019-03-10T12:37:10.576Z,65.80
2019-03-10T12:39:42.531Z,66.00
2019-03-10T12:42:14.839Z,67.60
2019-03-10T12:44:46.660Z,69.60
2019-03-10T12:47:19.542Z,69.10
2019-03-10T12:49:51.539Z,70.70
2019-03-10T12:52:23.384Z,70.10
2019-03-10T12:54:55.208Z,70.90
2019-03-10T12:57:27.346Z,68.40
2019-03-10T12:59:59.149Z,66.00
2019-03-10T13:02:31.015Z,67.20
2019-03-10T13:05:02.803Z,66.80
2019-03-10T13:07:34.945Z,63.70
2019-03-10T13:10:07.058Z,59.50
2019-03-10T13:12:39.299Z,58.10
2019-03-10T13:15:11.747Z,59.40
2019-03-10T13:17:43.613Z,63.50
2019-03-10T13:20:15.710Z,66.90
2019-03-10T13:22:47.833Z,69.70
2019-03-10T13:25:19.934Z,74.70
2019-03-10T13:27:51.835Z,65.60
2019-03-10T13:30:23.626Z,59.50
2019-03-10T13:32:55.750Z,52.30
2019-03-10T13:35:27.880Z,52.90
2019-03-10T13:37:59.741Z,53.80
2019-03-10T13:40:31.838Z,57.60
2019-03-10T13:43:03.681Z,60.30
2019-03-10T13:45:35.489Z,58.00
2019-03-10T13:48:07.365Z,58.50
2019-03-10T13:50:39.177Z,57.60
2019-03-10T13:53:11.397Z,54.10
2019-03-10T13:55:43.268Z,55.70
2019-03-10T13:58:15.452Z,55.80
2019-03-10T14:00:48.149Z,54.20
2019-03-10T14:03:21.340Z,52.50
2019-03-10T14:05:53.315Z,49.10
2019-03-10T14:08:25.470Z,46.90
2019-03-10T14:10:57.541Z,50.50
2019-03-10T14:13:29.647Z,49.60
2019-03-10T14:16:01.489Z,46.60
2019-03-10T14:18:33.634Z,43.40
2019-03-10T14:21:05.461Z,39.90
2019-03-10T14:23:38.250Z,36.40
2019-03-10T14:26:10.933Z,34.10
2019-03-10T14:28:43.117Z,34.30
2019-03-10T14:31:15.003Z,31.00
2019-03-10T14:33:47.209Z,30.20
2019-03-10T14:36:19.044Z,30.60
2019-03-10T14:38:51.204Z,30.30
2019-03-10T14:41:23.285Z,33.00
2019-03-10T14:43:55.212Z,37.60
2019-03-10T14:46:27.155Z,38.70
2019-03-10T14:48:59.990Z,40.60
2019-03-10T14:51:31.827Z,40.70
2019-03-10T14:54:04.135Z,42.20
2019-03-10T14:56:37.317Z,40.90
2019-03-10T14:59:09.186Z,38.70
2019-03-10T15:01:41.021Z,34.40
2019-03-10T15:04:12.883Z,31.80
2019-03-10T15:06:44.723Z,30.40
2019-03-10T15:09:16.541Z,28.90
2019-03-10T15:11:48.933Z,28.40
2019-03-10T15:14:20.917Z,29.80
2019-03-10T15:16:52.821Z,30.90
2019-03-10T15:19:38.692Z,28.30
2019-03-10T15:29:17.914Z,33.30
2019-03-10T15:33:00.173Z,36.40
2019-03-10T15:36:47.372Z,37.30
2019-03-10T15:47:00.923Z,44.80
2019-03-10T15:49:47.048Z,48.20
2019-03-10T15:55:20.335Z,52.80
2019-03-10T15:57:55.177Z,52.20
2019-03-10T16:00:28.127Z,49.80
2019-03-10T16:03:02.405Z,48.00
2019-03-10T16:05:36.688Z,46.80
2019-03-10T16:08:12.631Z,47.00
2019-03-10T16:10:47.028Z,46.80
2019-03-10T16:13:52.655Z,46.30
2019-03-10T16:16:27.836Z,48.90
2019-03-10T16:19:12.873Z,52.60
2019-03-10T16:22:18.353Z,56.00
2019-03-10T16:33:13.813Z,66.30
2019-03-10T16:36:28.922Z,66.10
2019-03-10T16:39:50.119Z,64.70
2019-03-10T16:42:34.629Z,62.50
2019-03-10T16:45:34.134Z,61.30
2019-03-10T16:48:09.876Z,59.50
2019-03-10T16:50:46.304Z,57.60
2019-03-10T16:53:29.703Z,56.80
2019-03-10T16:56:04.297Z,54.60
2019-03-10T16:58:42.182Z,52.20
2019-03-10T17:01:21.911Z,52.00
2019-03-10T17:04:00.803Z,48.10
2019-03-10T17:07:12.053Z,45.10
2019-03-10T17:10:07.279Z,44.40
2019-03-10T17:13:10.028Z,45.50
2019-03-10T17:16:39.138Z,45.20
2019-03-10T17:19:41.938Z,44.10
2019-03-10T17:22:38.696Z,43.50
2019-03-10T17:25:16.841Z,40.90
2019-03-10T17:28:20.113Z,42.50
2019-03-10T17:30:52.843Z,41.10
2019-03-10T17:33:24.789Z,42.80
2019-03-10T17:35:56.918Z,41.70
2019-03-10T17:38:29.315Z,41.80
2019-03-10T17:41:01.106Z,41.00
2019-03-10T17:43:33.261Z,42.00
2019-03-10T17:46:07.413Z,43.70
2019-03-10T17:48:39.248Z,42.30
2019-03-10T17:51:11.070Z,41.20
2019-03-10T17:53:42.908Z,43.00
2019-03-10T17:56:14.986Z,40.60
2019-03-10T17:58:46.962Z,39.40
2019-03-10T18:01:19.198Z,38.20
2019-03-10T18:03:51.039Z,37.90
2019-03-10T18:06:22.861Z,37.60
2019-03-10T18:08:54.683Z,37.10
2019-03-10T18:11:27.877Z,36.80
2019-03-10T18:13:59.792Z,35.90
2019-03-10T18:16:33.585Z,37.50
2019-03-10T18:19:05.171Z,37.30
2019-03-10T18:21:36.982Z,37.10
2019-03-10T18:24:09.101Z,37.60
2019-03-10T18:26:41.261Z,37.50
2019-03-10T18:29:13.244Z,37.90
2019-03-10T18:31:45.115Z,37.80
2019-03-10T18:34:17.839Z,38.30
2019-03-10T18:36:50.419Z,38.40
2019-03-10T18:39:22.358Z,38.10
2019-03-10T18:41:54.179Z,39.00
2019-03-10T18:44:26.046Z,38.30
2019-03-10T18:46:57.989Z,38.70
2019-03-10T18:49:29.833Z,39.20
2019-03-10T18:52:01.620Z,39.10
2019-03-10T18:54:33.850Z,40.20
2019-03-10T18:57:05.667Z,41.10
2019-03-10T18:59:37.853Z,42.90
2019-03-10T19:02:10.372Z,44.30
2019-03-10T19:04:42.170Z,47.50
2019-03-10T19:07:14.064Z,49.90
2019-03-10T19:09:46.128Z,51.00
2019-03-10T19:12:17.983Z,52.50
2019-03-10T19:14:49.941Z,52.10
2019-03-10T19:17:21.802Z,53.10
2019-03-10T19:19:53.621Z,52.00
2019-03-10T19:22:27.817Z,52.20
2019-03-10T19:25:00.822Z,55.10
2019-03-10T19:27:33.888Z,59.80
2019-03-10T19:30:06.683Z,61.90
2019-03-10T19:32:38.514Z,64.50
2019-03-10T19:35:10.728Z,65.20
2019-03-10T19:40:19.440Z,63.10
2019-03-10T19:42:54.724Z,63.60
2019-03-10T19:45:26.809Z,66.30
2019-03-10T19:48:00.646Z,67.40
2019-03-10T19:50:33.487Z,66.90
2019-03-10T19:53:08.217Z,67.00
2019-03-10T19:55:40.322Z,66.70
2019-03-10T19:58:12.205Z,66.70
2019-03-10T20:00:44.724Z,66.20
2019-03-10T20:03:17.459Z,62.80
2019-03-10T20:05:49.335Z,63.70
2019-03-10T20:08:21.477Z,62.40
2019-03-10T20:10:53.322Z,62.20
2019-03-10T20:13:25.195Z,61.10
2019-03-10T20:15:57.060Z,61.70
2019-03-10T20:18:28.901Z,59.70
2019-03-10T20:21:00.707Z,58.00
2019-03-10T20:23:32.664Z,57.00
2019-03-10T20:26:04.459Z,56.80
2019-03-10T20:28:36.304Z,54.10
2019-03-10T20:31:08.419Z,51.70
2019-03-10T20:33:40.323Z,49.70
2019-03-10T20:36:12.121Z,49.60
2019-03-10T20:38:44.916Z,47.80
2019-03-10T20:41:16.754Z,46.00
2019-03-10T20:43:49.116Z,47.50
2019-03-10T20:46:23.756Z,47.60
2019-03-10T20:48:55.581Z,46.90
2019-03-10T20:51:27.386Z,46.70
2019-03-10T20:53:59.510Z,45.90
2019-03-10T20:56:31.760Z,46.40
2019-03-10T20:59:03.602Z,45.50
2019-03-10T21:01:35.780Z,44.00
2019-03-10T21:04:07.940Z,43.20
2019-03-10T21:06:40.446Z,41.60
2019-03-10T21:09:12.281Z,41.60
2019-03-10T21:11:44.088Z,41.60
2019-03-10T21:14:16.290Z,42.50
2019-03-10T21:16:48.128Z,40.60
2019-03-10T21:19:20.627Z,41.20
2019-03-10T21:21:52.697Z,41.50
2019-03-10T21:24:24.896Z,42.50
2019-03-10T21:26:56.710Z,42.60
2019-03-10T21:29:32.121Z,42.80
2019-03-10T21:32:04.198Z,42.90
2019-03-10T21:34:36.436Z,42.30
2019-03-10T21:37:08.314Z,43.20
2019-03-10T21:39:40.421Z,41.30
2019-03-10T21:42:12.492Z,42.30
2019-03-10T21:44:44.373Z,42.10
2019-03-10T21:47:16.196Z,43.40
2019-03-10T21:49:48.404Z,43.90
2019-03-10T21:52:20.246Z,44.10
2019-03-10T21:54:52.695Z,44.00
2019-03-10T21:57:24.506Z,44.30
2019-03-10T21:59:56.493Z,44.90
2019-03-10T22:02:28.295Z,44.90
2019-03-10T22:05:00.430Z,45.10
2019-03-10T22:07:32.264Z,44.90
2019-03-10T22:10:04.099Z,45.30
2019-03-10T22:12:35.907Z,44.40
2019-03-10T22:15:10.245Z,45.20
2019-03-10T22:17:42.646Z,43.20
2019-03-10T22:20:17.566Z,43.00
2019-03-10T22:22:50.382Z,42.00
2019-03-10T22:25:22.955Z,42.40
2019-03-10T22:27:55.147Z,42.70
2019-03-10T22:30:27.225Z,42.60
2019-03-10T22:32:59.132Z,42.40
2019-03-10T22:35:30.964Z,42.10
2019-03-10T22:38:03.149Z,43.20
2019-03-10T22:40:35.243Z,42.40
2019-03-10T22:43:07.406Z,42.50
2019-03-10T22:45:39.263Z,42.70
2019-03-10T22:48:11.394Z,42.30
2019-03-10T22:50:43.258Z,42.40
2019-03-10T22:53:15.409Z,43.10
2019-03-10T22:55:47.719Z,41.90
2019-03-10T22:58:19.724Z,43.00
2019-03-10T23:00:53.100Z,43.10
2019-03-10T23:03:25.193Z,43.90
2019-03-10T23:05:56.991Z,43.90
2019-03-10T23:08:28.824Z,43.40
2019-03-10T23:11:00.665Z,42.50
2019-03-10T23:13:32.487Z,42.30
2019-03-10T23:16:04.358Z,43.10
2019-03-10T23:18:36.183Z,42.20
2019-03-10T23:21:08.162Z,42.40
2019-03-10T23:23:40.427Z,42.80
2019-03-10T23:26:12.258Z,43.30
2019-03-10T23:28:44.058Z,43.20
2019-03-10T23:31:16.162Z,42.30
2019-03-10T23:33:48.073Z,42.40
2019-03-10T23:36:19.897Z,42.90
2019-03-10T23:38:51.696Z,42.80
2019-03-10T23:41:23.859Z,43.20
2019-03-10T23:43:56.015Z,43.10
2019-03-10T23:46:28.457Z,42.90
2019-03-10T23:49:00.539Z,43.20
2019-03-10T23:51:32.931Z,44.20
2019-03-10T23:54:04.740Z,45.20
2019-03-10T23:56:36.577Z,45.60
2019-03-10T23:59:08.990Z,46.50
